Time;durP1;ratioP1;P1;durP2;ratioP2;P2;SDS_P1;SDS_P2;PMS_P1;PMS_P2;Temp;Humidity;BMP_temperature;BMP_pressure;BME280_temperature;BME280_humidity;BME280_pressure;Samples;Min_cycle;Max_cycle;Signal;HPM_P1;HPM_P2
2021/12/10 00:01:47;;;;;;;4.22;1.92;;;4.60;99.90;;;;;;6281954;22;20175;-51
2021/12/10 00:04:12;;;;;;;6.75;2.10;;;4.40;99.90;;;;;;6282644;22;20196;-52
2021/12/10 00:06:48;;;;;;;1.87;1.63;;;4.10;99.90;;;;;;6282965;22;20187;-51
2021/12/10 00:09:30;;;;;;;2.85;2.28;;;4.40;99.90;;;;;;6283137;22;20515;-51
2021/12/10 00:12:06;;;;;;;3.53;2.20;;;4.30;99.90;;;;;;6272530;22;20156;-51
2021/12/10 00:14:34;;;;;;;3.60;2.15;;;4.40;99.90;;;;;;6270113;22;20183;-52
2021/12/10 00:17:03;;;;;;;3.00;2.22;;;4.40;99.90;;;;;;6271730;22;20160;-51
2021/12/10 00:22:00;;;;;;;4.07;2.30;;;3.40;99.90;;;;;;6282878;22;20153;-51
2021/12/10 00:24:29;;;;;;;2.03;1.70;;;4.10;99.90;;;;;;6272356;22;20192;-52
2021/12/10 00:26:56;;;;;;;2.65;2.45;;;3.80;99.90;;;;;;6271917;22;20172;-51
2021/12/10 00:29:23;;;;;;;4.93;2.60;;;3.90;99.90;;;;;;6272738;22;20667;-52
2021/12/10 00:32:00;;;;;;;3.58;2.03;;;3.90;99.90;;;;;;6284814;22;20152;-52
2021/12/10 00:34:29;;;;;;;2.30;2.10;;;3.90;99.90;;;;;;6273984;22;20627;-52
2021/12/10 00:36:58;;;;;;;2.00;1.80;;;4.10;99.90;;;;;;6283840;22;20194;-51
2021/12/10 00:39:31;;;;;;;5.05;2.40;;;3.80;99.90;;;;;;6282962;22;20497;-51
2021/12/10 00:41:58;;;;;;;5.30;2.30;;;3.50;99.90;;;;;;6273421;22;20538;-52
2021/12/10 00:44:24;;;;;;;6.55;2.60;;;3.70;99.90;;;;;;6284834;22;20180;-51
2021/12/10 00:46:51;;;;;;;4.37;2.83;;;3.80;99.90;;;;;;6284322;22;20163;-52
2021/12/10 00:49:16;;;;;;;5.80;2.03;;;3.80;99.90;;;;;;6273887;22;21101;-52
2021/12/10 00:51:43;;;;;;;5.03;2.43;;;3.40;99.90;;;;;;6284930;22;20180;-52
2021/12/10 00:54:11;;;;;;;6.95;2.60;;;3.90;99.90;;;;;;6284468;22;20631;-51
2021/12/10 00:56:38;;;;;;;3.47;2.42;;;3.50;99.90;;;;;;6273377;22;20163;-52
2021/12/10 00:59:04;;;;;;;3.00;2.10;;;3.70;99.90;;;;;;6272048;22;20616;-52
2021/12/10 01:01:32;;;;;;;5.97;2.20;;;3.60;99.90;;;;;;6273127;22;20149;-52
2021/12/10 01:04:14;;;;;;;5.30;2.20;;;3.70;99.90;;;;;;6284527;22;20700;-51
2021/12/10 01:06:43;;;;;;;5.18;2.38;;;3.30;99.90;;;;;;6284516;22;20137;-51
2021/12/10 01:09:16;;;;;;;3.92;2.97;;;3.30;99.90;;;;;;6283982;22;20476;-51
2021/12/10 01:11:49;;;;;;;4.78;2.80;;;3.30;99.90;;;;;;6274560;22;20195;-52
2021/12/10 01:14:24;;;;;;;5.15;2.15;;;3.10;99.90;;;;;;6286195;22;20202;-52
2021/12/10 01:25:34;;;;;;;3.10;2.50;;;3.20;99.90;;;;;;6283934;22;20194;-51
2021/12/10 01:28:00;;;;;;;5.32;2.58;;;3.20;99.90;;;;;;6273658;22;20156;-51
2021/12/10 01:30:31;;;;;;;3.25;2.50;;;2.80;99.90;;;;;;6284455;22;20491;-50
2021/12/10 01:33:01;;;;;;;3.22;2.70;;;2.80;99.90;;;;;;6284225;22;20199;-50
2021/12/10 01:35:34;;;;;;;3.10;2.30;;;2.90;99.90;;;;;;6284354;22;20168;-50
2021/12/10 01:38:02;;;;;;;2.92;2.45;;;2.80;99.90;;;;;;6282779;22;20160;-51
2021/12/10 01:40:29;;;;;;;3.67;1.98;;;2.70;99.90;;;;;;6271413;22;20488;-51
2021/12/10 01:43:05;;;;;;;2.92;2.55;;;2.70;99.90;;;;;;6283339;22;20175;-51
2021/12/10 01:45:34;;;;;;;4.05;2.20;;;3.10;99.90;;;;;;6284531;22;20136;-50
2021/12/10 01:48:05;;;;;;;4.55;2.38;;;2.60;99.90;;;;;;6273112;22;20160;-50
2021/12/10 01:50:33;;;;;;;4.60;2.63;;;2.60;99.90;;;;;;6273751;22;20548;-50
2021/12/10 01:53:02;;;;;;;8.88;2.53;;;2.60;99.90;;;;;;6284095;22;20255;-50
2021/12/10 01:55:30;;;;;;;5.88;2.70;;;2.70;99.90;;;;;;6271440;22;20188;-50
2021/12/10 01:57:57;;;;;;;4.95;2.10;;;2.30;99.90;;;;;;6271539;22;20594;-50
2021/12/10 02:00:28;;;;;;;3.25;1.88;;;2.50;99.90;;;;;;6282364;22;20167;-50
2021/12/10 02:02:55;;;;;;;2.50;1.95;;;2.10;99.90;;;;;;6272781;22;20582;-50
2021/12/10 02:05:21;;;;;;;2.85;2.22;;;2.70;99.90;;;;;;6283451;22;20149;-50
2021/12/10 02:07:47;;;;;;;7.10;2.63;;;2.80;99.90;;;;;;6283523;22;20157;-50
2021/12/10 02:10:16;;;;;;;3.45;2.00;;;2.90;99.90;;;;;;6272954;22;20675;-50
2021/12/10 02:12:42;;;;;;;2.83;2.17;;;2.70;99.90;;;;;;6273256;22;20261;-50
2021/12/10 02:15:11;;;;;;;2.15;1.92;;;2.60;99.90;;;;;;6283521;22;20179;-50
2021/12/10 02:17:41;;;;;;;2.33;2.00;;;2.70;99.90;;;;;;6271669;22;20297;-50
2021/12/10 02:20:18;;;;;;;4.13;2.00;;;1.90;99.90;;;;;;6282216;22;20152;-50
2021/12/10 02:22:44;;;;;;;2.47;1.70;;;2.50;99.90;;;;;;6283658;22;20175;-51
2021/12/10 02:25:11;;;;;;;2.08;1.88;;;2.60;99.90;;;;;;6272898;22;20187;-50
2021/12/10 02:27:37;;;;;;;5.72;2.30;;;2.50;99.90;;;;;;6272800;22;20157;-51
2021/12/10 02:30:07;;;;;;;4.20;2.03;;;2.80;99.90;;;;;;6273164;22;20161;-50
2021/12/10 02:32:33;;;;;;;3.30;2.30;;;2.50;99.90;;;;;;6283758;22;20375;-50
2021/12/10 02:34:59;;;;;;;5.80;1.90;;;2.50;99.90;;;;;;6283226;22;20179;-51
2021/12/10 02:37:24;;;;;;;4.67;2.03;;;2.00;99.90;;;;;;6282293;22;20387;-51
2021/12/10 02:39:50;;;;;;;3.77;2.43;;;2.50;99.90;;;;;;6269557;22;20148;-50
2021/12/10 02:42:16;;;;;;;7.32;2.10;;;2.40;99.90;;;;;;6282649;22;20152;-51
2021/12/10 02:44:42;;;;;;;3.77;2.33;;;2.60;99.90;;;;;;6272998;22;20156;-50
2021/12/10 02:47:08;;;;;;;2.97;1.87;;;2.70;99.90;;;;;;6282935;22;20383;-50
2021/12/10 02:49:35;;;;;;;6.07;2.55;;;2.50;99.90;;;;;;6282682;22;20790;-51
2021/12/10 02:52:02;;;;;;;3.75;1.58;;;2.60;99.90;;;;;;6283322;22;20219;-50
2021/12/10 02:54:35;;;;;;;5.50;1.95;;;2.70;99.90;;;;;;6273306;22;20259;-50
2021/12/10 02:57:08;;;;;;;2.38;1.60;;;2.40;99.90;;;;;;6271611;22;20149;-50
2021/12/10 02:59:34;;;;;;;5.13;1.95;;;2.50;99.90;;;;;;6282144;22;20151;-53
2021/12/10 03:02:03;;;;;;;2.58;1.98;;;2.60;99.90;;;;;;6282521;22;20190;-50
2021/12/10 03:04:31;;;;;;;2.70;1.88;;;2.50;99.90;;;;;;6272324;22;20180;-50
2021/12/10 03:06:59;;;;;;;2.40;1.77;;;2.50;99.90;;;;;;6283110;22;20149;-50
2021/12/10 03:09:27;;;;;;;1.88;1.77;;;2.90;99.90;;;;;;6282927;22;20159;-50
2021/12/10 03:11:56;;;;;;;3.30;2.53;;;2.40;99.90;;;;;;6272337;22;20168;-50
2021/12/10 03:14:29;;;;;;;4.90;1.80;;;2.30;99.90;;;;;;6282766;22;20254;-50
2021/12/10 03:16:58;;;;;;;2.92;1.70;;;2.30;99.90;;;;;;6281431;22;20163;-50
2021/12/10 03:19:25;;;;;;;2.55;2.10;;;2.20;99.90;;;;;;6271231;22;20152;-50
2021/12/10 03:21:51;;;;;;;1.80;1.70;;;2.50;99.90;;;;;;6281763;22;20483;-50
2021/12/10 03:24:22;;;;;;;4.85;1.95;;;2.40;99.90;;;;;;6272679;22;20251;-50
2021/12/10 03:26:51;;;;;;;8.23;2.30;;;2.30;99.90;;;;;;6280112;22;20156;-50
2021/12/10 03:29:18;;;;;;;4.30;1.67;;;2.40;99.90;;;;;;6282325;22;20611;-50
2021/12/10 03:31:44;;;;;;;2.75;1.70;;;2.50;99.90;;;;;;6272264;22;20638;-50
2021/12/10 03:34:10;;;;;;;3.20;1.88;;;2.40;99.90;;;;;;6271996;22;20569;-50
2021/12/10 03:36:36;;;;;;;3.47;1.60;;;2.10;99.90;;;;;;6282471;22;20461;-50
2021/12/10 03:39:04;;;;;;;5.20;1.70;;;2.30;99.90;;;;;;6268934;22;20252;-50
2021/12/10 03:41:30;;;;;;;4.80;1.83;;;2.20;99.90;;;;;;6280723;22;20375;-50
2021/12/10 03:43:56;;;;;;;3.63;1.77;;;2.30;99.90;;;;;;6282337;22;20471;-50
2021/12/10 03:46:23;;;;;;;3.83;2.10;;;2.10;99.90;;;;;;6272679;22;20795;-50
2021/12/10 03:48:49;;;;;;;2.67;1.70;;;2.20;99.90;;;;;;6271766;22;20437;-50
2021/12/10 03:51:20;;;;;;;1.83;1.60;;;1.70;99.90;;;;;;6281940;22;20161;-50
2021/12/10 03:53:46;;;;;;;2.72;1.70;;;2.20;99.90;;;;;;6282245;22;20959;-50
2021/12/10 03:56:16;;;;;;;4.57;2.50;;;2.20;99.90;;;;;;6281707;22;20149;-51
2021/12/10 03:58:47;;;;;;;5.32;2.17;;;2.00;99.90;;;;;;6271118;22;20243;-50
2021/12/10 04:01:16;;;;;;;2.53;2.33;;;1.50;99.90;;;;;;6271187;22;20187;-51
2021/12/10 04:03:45;;;;;;;2.40;2.08;;;2.30;99.90;;;;;;6272329;22;20205;-50
2021/12/10 04:06:11;;;;;;;2.30;1.90;;;2.20;99.90;;;;;;6274231;22;20501;-50
2021/12/10 04:08:37;;;;;;;3.60;2.30;;;1.50;99.90;;;;;;6284761;22;20180;-51
2021/12/10 04:11:04;;;;;;;3.30;2.70;;;2.10;99.90;;;;;;6274062;22;20866;-50
2021/12/10 04:13:31;;;;;;;7.50;2.75;;;2.20;99.90;;;;;;6284272;22;20495;-50
2021/12/10 04:15:57;;;;;;;2.85;2.65;;;2.10;99.90;;;;;;6284713;22;20228;-51
2021/12/10 04:18:22;;;;;;;3.67;2.10;;;2.20;99.90;;;;;;6269622;22;20180;-50
2021/12/10 04:20:48;;;;;;;4.17;2.40;;;2.30;99.90;;;;;;6284083;22;20390;-50
2021/12/10 04:23:18;;;;;;;3.67;2.40;;;2.10;99.90;;;;;;6272768;22;20959;-50
2021/12/10 04:25:44;;;;;;;2.90;2.38;;;2.10;99.90;;;;;;6283816;22;20535;-50
2021/12/10 04:28:14;;;;;;;3.13;2.15;;;2.20;99.90;;;;;;6283023;22;20157;-50
2021/12/10 04:30:42;;;;;;;3.65;2.80;;;2.30;99.90;;;;;;6272452;22;20239;-50
2021/12/10 04:33:12;;;;;;;3.47;2.50;;;2.20;99.90;;;;;;6273112;22;20632;-50
2021/12/10 04:35:40;;;;;;;3.13;2.38;;;2.00;99.90;;;;;;6284370;22;20173;-50
2021/12/10 04:38:06;;;;;;;11.10;3.35;;;2.10;99.90;;;;;;6283743;22;20198;-50
2021/12/10 04:40:32;;;;;;;5.75;2.88;;;2.00;99.90;;;;;;6284161;22;20239;-50
2021/12/10 04:42:59;;;;;;;3.20;2.80;;;2.10;99.90;;;;;;6283714;22;20782;-50
2021/12/10 04:45:25;;;;;;;4.32;3.05;;;1.90;99.90;;;;;;6284436;22;20149;-50
2021/12/10 04:47:50;;;;;;;6.20;3.30;;;2.00;99.90;;;;;;6282793;22;20153;-51
2021/12/10 04:50:19;;;;;;;3.30;3.00;;;2.00;99.90;;;;;;6273091;22;20695;-49
2021/12/10 04:52:46;;;;;;;5.00;2.67;;;1.90;99.90;;;;;;6273805;22;20180;-49
2021/12/10 04:55:14;;;;;;;2.97;2.67;;;1.90;99.90;;;;;;6274498;22;20666;-49
2021/12/10 04:57:41;;;;;;;5.30;3.40;;;1.50;99.90;;;;;;6274186;22;20149;-50
2021/12/10 05:00:12;;;;;;;6.63;3.85;;;2.00;99.90;;;;;;6273818;22;20171;-51
2021/12/10 05:02:38;;;;;;;4.70;3.50;;;2.00;99.90;;;;;;6283876;22;20648;-49
2021/12/10 05:05:05;;;;;;;4.47;3.53;;;1.70;99.90;;;;;;6283882;22;20153;-49
2021/12/10 05:07:35;;;;;;;7.00;3.75;;;2.00;99.90;;;;;;6273988;22;20517;-49
2021/12/10 05:10:01;;;;;;;3.95;3.58;;;2.00;99.90;;;;;;6273934;22;20199;-49
2021/12/10 05:12:27;;;;;;;6.32;3.55;;;2.00;99.90;;;;;;6273486;22;20678;-49
2021/12/10 05:14:59;;;;;;;4.57;3.20;;;2.00;99.90;;;;;;6283976;22;20265;-49
2021/12/10 05:17:28;;;;;;;4.50;3.10;;;2.00;99.90;;;;;;6273527;22;20206;-51
2021/12/10 05:19:54;;;;;;;5.43;3.83;;;1.80;99.90;;;;;;6274350;22;20230;-49
2021/12/10 05:22:20;;;;;;;5.10;3.50;;;1.90;99.90;;;;;;6284241;22;20155;-50
2021/12/10 05:24:45;;;;;;;5.93;3.20;;;1.90;99.90;;;;;;6284185;22;20156;-49
2021/12/10 05:27:11;;;;;;;4.93;3.50;;;1.90;99.90;;;;;;6273250;22;20215;-50
2021/12/10 05:29:37;;;;;;;4.80;3.60;;;1.70;99.90;;;;;;6283808;22;20463;-50
2021/12/10 05:32:05;;;;;;;4.13;3.63;;;1.80;99.90;;;;;;6273069;22;20395;-49
2021/12/10 05:34:30;;;;;;;7.50;4.85;;;2.00;99.90;;;;;;6284049;22;20188;-49
2021/12/10 05:36:57;;;;;;;5.07;3.63;;;1.10;99.90;;;;;;6283269;22;20648;-50
2021/12/10 05:39:23;;;;;;;5.70;3.95;;;2.00;99.90;;;;;;6284160;22;20152;-50
2021/12/10 05:41:51;;;;;;;6.07;4.60;;;1.80;99.90;;;;;;6282025;22;20243;-51
2021/12/10 05:44:17;;;;;;;5.43;4.50;;;1.90;99.90;;;;;;6283218;22;20411;-51
2021/12/10 05:46:42;;;;;;;5.30;3.83;;;1.90;99.90;;;;;;6272947;22;20210;-50
2021/12/10 05:49:08;;;;;;;7.33;4.30;;;1.70;99.90;;;;;;6283358;22;20715;-52
2021/12/10 05:51:35;;;;;;;5.28;3.63;;;1.70;99.90;;;;;;6283848;22;20156;-50
2021/12/10 05:54:01;;;;;;;4.85;4.03;;;1.90;99.90;;;;;;6273745;22;20267;-52
2021/12/10 05:56:27;;;;;;;4.77;3.80;;;1.70;99.90;;;;;;6282847;22;20184;-51
2021/12/10 05:58:52;;;;;;;5.50;3.97;;;1.70;99.90;;;;;;6273224;22;20387;-52
2021/12/10 06:01:21;;;;;;;4.00;3.60;;;1.70;99.90;;;;;;6284374;22;20644;-52
2021/12/10 06:03:53;;;;;;;7.45;6.00;;;1.60;99.90;;;;;;6283682;22;20422;-52
2021/12/10 06:06:26;;;;;;;5.10;4.35;;;1.70;99.90;;;;;;6283400;22;20133;-50
2021/12/10 06:08:53;;;;;;;7.72;4.70;;;2.30;99.90;;;;;;6283609;22;20137;-51
2021/12/10 06:11:21;;;;;;;8.50;4.35;;;1.10;99.90;;;;;;6272937;22;20202;-51
2021/12/10 06:13:47;;;;;;;5.10;4.60;;;1.60;99.90;;;;;;6282652;22;20172;-51
2021/12/10 06:16:14;;;;;;;6.30;4.63;;;1.30;99.90;;;;;;6272998;22;20165;-52
2021/12/10 06:18:39;;;;;;;6.05;4.50;;;1.80;99.90;;;;;;6281797;22;20379;-53
2021/12/10 06:21:05;;;;;;;7.07;4.50;;;1.70;99.90;;;;;;6282647;22;20160;-55
2021/12/10 06:23:31;;;;;;;6.40;4.77;;;1.90;99.90;;;;;;6282981;22;20173;-53
2021/12/10 06:25:57;;;;;;;19.40;6.50;;;1.70;99.90;;;;;;6282396;22;20462;-53
2021/12/10 06:28:22;;;;;;;6.73;4.80;;;1.60;99.90;;;;;;6281711;22;20417;-54
2021/12/10 06:30:51;;;;;;;5.37;4.80;;;1.70;99.90;;;;;;6281463;22;20600;-55
2021/12/10 06:33:21;;;;;;;5.68;4.28;;;1.50;99.90;;;;;;6281765;22;20180;-55
2021/12/10 06:35:50;;;;;;;14.23;5.93;;;1.40;99.90;;;;;;6282332;22;20165;-56
2021/12/10 06:38:17;;;;;;;13.55;6.30;;;1.80;99.90;;;;;;6282604;22;20235;-53
2021/12/10 06:40:44;;;;;;;7.85;5.00;;;1.50;99.90;;;;;;6282697;22;20159;-53
2021/12/10 06:43:11;;;;;;;8.50;5.10;;;1.40;99.90;;;;;;6282654;22;20504;-55
2021/12/10 06:45:37;;;;;;;10.27;5.50;;;1.40;99.90;;;;;;6272282;22;20164;-54
2021/12/10 06:48:05;;;;;;;13.82;6.63;;;1.40;99.90;;;;;;6281448;22;20709;-53
2021/12/10 06:50:35;;;;;;;10.60;6.30;;;1.70;99.90;;;;;;6271428;22;20176;-48
2021/12/10 06:53:01;;;;;;;8.32;5.40;;;1.40;99.90;;;;;;6280759;22;20172;-50
2021/12/10 06:55:28;;;;;;;6.95;4.90;;;1.50;99.90;;;;;;6268265;22;20197;-50
2021/12/10 06:57:54;;;;;;;8.23;5.43;;;1.60;99.90;;;;;;6281937;22;20151;-50
2021/12/10 07:00:24;;;;;;;7.00;5.70;;;1.40;99.90;;;;;;6281843;22;20514;-51
2021/12/10 07:02:50;;;;;;;8.18;6.03;;;1.70;99.90;;;;;;6267959;22;20407;-51
2021/12/10 07:05:16;;;;;;;7.37;5.27;;;1.40;99.90;;;;;;6269184;22;20560;-51
2021/12/10 07:07:43;;;;;;;7.70;5.80;;;1.60;99.90;;;;;;6271673;22;20397;-50
2021/12/10 07:10:12;;;;;;;8.65;6.50;;;1.50;99.90;;;;;;6282582;22;20390;-50
2021/12/10 07:12:40;;;;;;;9.02;7.25;;;1.40;99.90;;;;;;6282442;22;20172;-51
2021/12/10 07:15:09;;;;;;;11.65;6.05;;;1.40;99.90;;;;;;6272060;22;20642;-50
2021/12/10 07:17:39;;;;;;;12.85;6.35;;;1.70;99.90;;;;;;6282036;22;20153;-50
2021/12/10 07:20:07;;;;;;;17.23;7.30;;;1.80;99.90;;;;;;6270422;22;20176;-51
2021/12/10 07:22:33;;;;;;;39.42;11.18;;;1.90;99.90;;;;;;6268566;22;20159;-50
2021/12/10 07:24:59;;;;;;;14.30;7.80;;;1.80;99.90;;;;;;6271249;22;20160;-50
2021/12/10 07:27:24;;;;;;;972.13;135.77;;;1.90;99.90;;;;;;6282102;22;20383;-49
2021/12/10 07:29:50;;;;;;;42.40;10.87;;;1.50;99.90;;;;;;6281929;22;20437;-50
2021/12/10 07:32:17;;;;;;;25.33;8.27;;;2.00;99.90;;;;;;6281754;22;20148;-49
2021/12/10 07:34:43;;;;;;;20.85;7.78;;;1.70;99.90;;;;;;6270764;22;20479;-50
2021/12/10 07:37:10;;;;;;;17.57;7.67;;;2.00;99.90;;;;;;6281702;22;20205;-51
2021/12/10 07:39:37;;;;;;;9.80;7.00;;;2.00;99.90;;;;;;6272807;22;20387;-51
2021/12/10 07:42:07;;;;;;;12.85;6.80;;;1.40;99.90;;;;;;6283565;22;20525;-51
2021/12/10 07:44:37;;;;;;;9.57;6.40;;;2.10;99.90;;;;;;6284436;22;20252;-50
2021/12/10 07:47:09;;;;;;;9.65;5.78;;;2.30;99.90;;;;;;6273648;22;20180;-49
2021/12/10 07:49:37;;;;;;;14.85;6.10;;;2.40;99.90;;;;;;6272961;22;20522;-50
2021/12/10 07:52:15;;;;;;;10.07;7.25;;;2.40;99.90;;;;;;6282162;22;20271;-51
2021/12/10 07:54:43;;;;;;;8.40;6.07;;;1.80;99.90;;;;;;6283672;22;20203;-50
2021/12/10 07:57:09;;;;;;;7.65;6.22;;;2.20;99.90;;;;;;6283654;22;20175;-50
2021/12/10 07:59:35;;;;;;;7.70;6.90;;;1.90;99.90;;;;;;6272956;22;20239;-50
2021/12/10 08:02:03;;;;;;;8.50;6.95;;;2.60;99.90;;;;;;6283770;22;20239;-51
2021/12/10 08:04:29;;;;;;;122.70;76.68;;;2.30;99.90;;;;;;6274927;22;20195;-50
2021/12/10 08:06:55;;;;;;;9.23;7.63;;;2.50;99.90;;;;;;6275111;22;20204;-51
2021/12/10 08:09:20;;;;;;;9.90;7.90;;;2.40;99.90;;;;;;6286316;22;20709;-50
2021/12/10 08:11:46;;;;;;;16.10;8.23;;;2.60;99.90;;;;;;6285613;22;20179;-50
2021/12/10 08:14:12;;;;;;;10.27;6.22;;;2.60;99.90;;;;;;6274581;22;20180;-50
2021/12/10 08:16:39;;;;;;;8.17;5.80;;;2.80;99.90;;;;;;6275423;22;20163;-50
2021/12/10 08:19:06;;;;;;;9.35;6.45;;;2.60;99.90;;;;;;6273681;22;20572;-50
2021/12/10 08:21:32;;;;;;;10.68;6.40;;;2.70;99.90;;;;;;6285757;22;20149;-48
2021/12/10 08:23:58;;;;;;;7.30;5.35;;;3.00;99.90;;;;;;6275182;22;20176;-49
2021/12/10 08:26:24;;;;;;;8.10;6.43;;;2.80;99.90;;;;;;6273964;22;20192;-51
2021/12/10 08:28:51;;;;;;;11.80;6.47;;;3.00;99.90;;;;;;6273792;22;20490;-50
2021/12/10 08:31:18;;;;;;;9.90;6.57;;;3.20;99.90;;;;;;6285465;22;20842;-51
2021/12/10 08:33:47;;;;;;;9.10;6.55;;;2.50;99.90;;;;;;6274039;22;20184;-52
2021/12/10 08:36:15;;;;;;;10.18;5.60;;;3.30;99.90;;;;;;6274999;22;20167;-51
2021/12/10 08:38:41;;;;;;;9.32;5.70;;;3.30;99.90;;;;;;6273082;22;20163;-50
2021/12/10 08:41:15;;;;;;;7.33;5.80;;;2.80;99.90;;;;;;6283251;22;20148;-50
2021/12/10 08:43:43;;;;;;;8.77;5.97;;;3.20;99.90;;;;;;6273060;22;20207;-49
2021/12/10 08:46:10;;;;;;;8.05;6.32;;;3.30;99.90;;;;;;6284511;22;20156;-50
2021/12/10 08:48:36;;;;;;;8.90;6.63;;;3.50;99.90;;;;;;6272516;22;20160;-50
2021/12/10 08:51:08;;;;;;;11.20;6.47;;;3.00;99.90;;;;;;6282397;22;20196;-49
2021/12/10 08:53:34;;;;;;;16.15;5.93;;;3.50;99.90;;;;;;6282653;22;20196;-49
2021/12/10 08:56:00;;;;;;;7.25;5.95;;;3.70;99.90;;;;;;6272729;22;20584;-50
2021/12/10 08:58:27;;;;;;;6.47;5.53;;;3.50;99.90;;;;;;6271749;22;20648;-51
2021/12/10 09:01:15;;;;;;;5.57;4.85;;;3.50;99.90;;;;;;6271349;22;20387;-51
2021/12/10 09:03:43;;;;;;;6.45;4.70;;;3.70;99.90;;;;;;6271933;22;20358;-51
2021/12/10 09:06:10;;;;;;;8.02;4.57;;;3.90;99.90;;;;;;6273373;22;20260;-50
2021/12/10 09:08:36;;;;;;;8.20;5.75;;;3.90;99.90;;;;;;6272926;22;20150;-51
2021/12/10 09:11:03;;;;;;;6.93;6.05;;;3.60;99.90;;;;;;6270544;22;20160;-51
2021/12/10 09:13:29;;;;;;;9.18;6.45;;;3.90;99.90;;;;;;6282798;22;20168;-49
2021/12/10 09:16:02;;;;;;;9.33;6.60;;;3.60;99.90;;;;;;6273386;22;20180;-50
2021/12/10 09:18:28;;;;;;;8.82;6.25;;;3.90;99.90;;;;;;6271341;22;20145;-50
2021/12/10 09:21:00;;;;;;;9.38;5.95;;;3.00;99.90;;;;;;6282318;22;20601;-51
2021/12/10 09:23:27;;;;;;;9.95;5.20;;;3.60;99.90;;;;;;6283374;22;20168;-51
2021/12/10 09:25:56;;;;;;;10.65;6.40;;;3.80;99.90;;;;;;6273017;22;20160;-50
2021/12/10 09:28:24;;;;;;;6.88;5.70;;;3.60;99.90;;;;;;6283850;22;20596;-49
2021/12/10 09:30:54;;;;;;;7.15;6.47;;;3.80;99.90;;;;;;6282495;22;20213;-51
2021/12/10 09:33:21;;;;;;;6.13;4.10;;;3.90;99.90;;;;;;6272169;22;20199;-49
2021/12/10 09:35:47;;;;;;;16.02;4.38;;;4.20;99.90;;;;;;6282587;22;20172;-48
2021/12/10 09:38:14;;;;;;;6.68;3.72;;;4.10;99.90;;;;;;6272749;22;20591;-50
2021/12/10 09:40:44;;;;;;;4.18;3.45;;;4.00;99.90;;;;;;6282299;22;20232;-50
2021/12/10 09:43:12;;;;;;;5.65;3.83;;;4.20;99.90;;;;;;6272596;22;20531;-51
2021/12/10 09:45:40;;;;;;;3.70;3.40;;;4.00;99.70;;;;;;6271916;22;20158;-51
2021/12/10 09:48:08;;;;;;;5.63;4.45;;;4.40;99.30;;;;;;6282502;22;20154;-50
2021/12/10 09:50:41;;;;;;;5.10;3.53;;;4.40;99.80;;;;;;6272815;22;20169;-51
2021/12/10 09:53:08;;;;;;;4.22;3.78;;;4.40;99.90;;;;;;6271273;22;20185;-49
2021/12/10 09:55:35;;;;;;;3.42;2.70;;;4.50;99.20;;;;;;6272269;22;20271;-51
2021/12/10 09:58:01;;;;;;;5.75;3.45;;;4.90;98.70;;;;;;6282152;22;20592;-49
2021/12/10 10:00:32;;;;;;;4.70;3.95;;;4.60;98.40;;;;;;6283095;22;20592;-50
2021/12/10 10:02:59;;;;;;;4.20;3.53;;;4.90;98.50;;;;;;6272185;22;20228;-50
2021/12/10 10:05:27;;;;;;;4.25;3.47;;;4.20;98.70;;;;;;6271848;22;20216;-51
2021/12/10 10:07:59;;;;;;;7.47;4.65;;;4.80;98.70;;;;;;6270986;22;20167;-52
2021/12/10 10:10:27;;;;;;;3.75;3.38;;;5.00;98.90;;;;;;6281786;22;20500;-51
2021/12/10 10:12:56;;;;;;;5.30;3.63;;;4.20;98.30;;;;;;6270201;22;20182;-50
2021/12/10 10:15:30;;;;;;;5.65;3.63;;;4.90;99.10;;;;;;6272415;22;20699;-50
2021/12/10 10:17:59;;;;;;;6.47;4.10;;;4.80;98.40;;;;;;6271896;22;20163;-48
2021/12/10 10:20:28;;;;;;;6.93;3.60;;;5.00;98.40;;;;;;6271300;22;20163;-50
2021/12/10 10:22:54;;;;;;;4.93;3.20;;;5.40;98.10;;;;;;6270540;22;20174;-50
2021/12/10 10:25:22;;;;;;;7.93;3.60;;;5.00;97.80;;;;;;6282442;22;20501;-50
2021/12/10 10:27:49;;;;;;;6.88;3.65;;;4.60;97.10;;;;;;6282026;22;20214;-50
2021/12/10 10:30:17;;;;;;;4.00;3.20;;;4.70;96.10;;;;;;6272459;22;20243;-49
2021/12/10 10:32:46;;;;;;;4.80;3.35;;;4.90;96.40;;;;;;6281843;22;20167;-49
2021/12/10 10:35:21;;;;;;;5.15;3.10;;;5.10;96.50;;;;;;6281589;22;20279;-50
2021/12/10 10:37:47;;;;;;;6.40;3.25;;;5.60;97.70;;;;;;6271109;22;20156;-50
2021/12/10 10:40:22;;;;;;;4.03;3.28;;;4.70;96.90;;;;;;6271630;22;20161;-50
2021/12/10 10:42:49;;;;;;;3.67;3.10;;;5.40;96.60;;;;;;6282600;22;20174;-50
2021/12/10 10:45:20;;;;;;;6.50;3.38;;;5.10;96.30;;;;;;6281855;22;20555;-50
2021/12/10 10:47:47;;;;;;;3.85;2.47;;;5.00;96.60;;;;;;6270706;22;20177;-50
2021/12/10 10:50:21;;;;;;;3.30;2.55;;;5.50;95.40;;;;;;6270505;22;20647;-50
2021/12/10 10:52:52;;;;;;;4.80;2.00;;;5.80;94.60;;;;;;6271232;22;20181;-50
2021/12/10 10:55:29;;;;;;;3.22;2.72;;;6.00;94.60;;;;;;6271982;22;20278;-49
2021/12/10 10:57:54;;;;;;;6.68;2.83;;;5.80;94.40;;;;;;6272410;22;20218;-50
2021/12/10 11:00:37;;;;;;;4.17;2.30;;;5.70;94.90;;;;;;6272659;22;20164;-50
2021/12/10 11:03:12;;;;;;;6.32;2.70;;;5.60;95.20;;;;;;6282699;22;20179;-50
2021/12/10 11:05:50;;;;;;;2.75;2.40;;;5.90;94.60;;;;;;6282293;22;20669;-50
2021/12/10 11:08:30;;;;;;;7.60;2.90;;;5.60;94.50;;;;;;6282463;22;20159;-50
2021/12/10 11:11:08;;;;;;;1.92;1.60;;;5.80;94.40;;;;;;6282287;22;20185;-50
2021/12/10 11:13:34;;;;;;;2.67;1.55;;;6.00;92.30;;;;;;6271971;22;20191;-50
2021/12/10 11:16:06;;;;;;;10.30;2.10;;;5.90;89.90;;;;;;6272479;22;20183;-49
2021/12/10 11:18:55;;;;;;;3.35;1.40;;;6.00;90.70;;;;;;6271479;22;20178;-50
2021/12/10 11:21:39;;;;;;;4.55;2.00;;;6.00;90.10;;;;;;6278995;22;20742;-50
2021/12/10 11:24:12;;;;;;;1.70;1.55;;;6.10;90.80;;;;;;6282160;22;20629;-49
2021/12/10 11:26:58;;;;;;;3.33;1.75;;;6.20;91.10;;;;;;6272065;22;20167;-49
2021/12/10 11:29:35;;;;;;;1.80;1.50;;;6.10;89.00;;;;;;6283020;22;20479;-50
2021/12/10 11:32:10;;;;;;;10.48;3.85;;;6.00;90.00;;;;;;6271610;22;20152;-50
2021/12/10 11:34:55;;;;;;;6.57;1.65;;;5.50;89.60;;;;;;6282200;22;20642;-49
2021/12/10 11:37:48;;;;;;;0.80;0.80;;;6.10;89.50;;;;;;6271326;22;20148;-51
2021/12/10 11:40:49;;;;;;;1.60;0.98;;;5.80;90.50;;;;;;6267169;22;20211;-51
2021/12/10 11:48:39;;;;;;;1.35;0.80;;;5.80;93.10;;;;;;6284900;22;20147;-49
2021/12/10 11:51:10;;;;;;;1.10;0.93;;;5.70;94.20;;;;;;6283581;22;20631;-52
2021/12/10 11:53:38;;;;;;;1.17;1.08;;;5.30;95.90;;;;;;6273067;22;20183;-50
2021/12/10 11:56:16;;;;;;;1.98;1.45;;;5.40;97.00;;;;;;6272706;22;20188;-50
2021/12/10 11:58:44;;;;;;;1.35;1.25;;;5.10;98.60;;;;;;6271286;22;20173;-50
2021/12/10 12:01:18;;;;;;;1.85;1.00;;;5.00;99.90;;;;;;6283551;22;20229;-51
2021/12/10 12:03:44;;;;;;;1.75;1.27;;;4.70;99.90;;;;;;6283353;22;20240;-49
2021/12/10 12:06:16;;;;;;;1.95;1.38;;;4.80;99.90;;;;;;6272335;22;20158;-49
2021/12/10 12:08:42;;;;;;;4.65;1.40;;;5.00;99.90;;;;;;6273684;22;20256;-50
2021/12/10 12:11:09;;;;;;;1.73;1.00;;;4.40;99.90;;;;;;6272868;22;20579;-49
2021/12/10 12:13:38;;;;;;;3.85;2.10;;;4.10;99.90;;;;;;6273108;22;20415;-49
2021/12/10 12:16:06;;;;;;;1.55;1.17;;;4.30;99.90;;;;;;6273773;22;20186;-49
2021/12/10 12:18:45;;;;;;;1.80;1.30;;;3.80;99.90;;;;;;6283620;22;20150;-50
2021/12/10 12:21:53;;;;;;;2.22;1.20;;;3.70;99.90;;;;;;6283325;22;20131;-49
2021/12/10 12:27:05;;;;;;;4.40;1.95;;;4.00;99.90;;;;;;6284962;22;20153;-50
2021/12/10 12:29:41;;;;;;;2.25;1.80;;;4.00;99.90;;;;;;6275235;22;20160;-50
2021/12/10 12:32:15;;;;;;;2.50;1.67;;;3.70;99.90;;;;;;6275316;22;20471;-51
2021/12/10 12:34:42;;;;;;;2.20;1.65;;;3.80;99.90;;;;;;6274759;22;20177;-51
2021/12/10 12:37:10;;;;;;;2.00;1.80;;;3.80;99.90;;;;;;6285661;22;20145;-49
2021/12/10 12:39:49;;;;;;;59.13;35.47;;;3.70;99.90;;;;;;6275497;22;20154;-51
2021/12/10 12:42:31;;;;;;;3.75;2.10;;;3.80;99.90;;;;;;6285504;22;20140;-48
2021/12/10 12:45:02;;;;;;;3.05;2.25;;;3.80;99.90;;;;;;6285450;22;20215;-49
2021/12/10 12:47:36;;;;;;;2.10;1.65;;;3.90;99.90;;;;;;6275859;22;20156;-48
2021/12/10 12:50:07;;;;;;;1.50;1.40;;;4.00;99.90;;;;;;6274816;22;20290;-52
2021/12/10 12:52:46;;;;;;;2.72;2.00;;;4.20;99.90;;;;;;6285708;22;20574;-51
2021/12/10 12:55:30;;;;;;;2.00;1.90;;;4.30;99.90;;;;;;6275575;22;20184;-52
2021/12/10 12:58:31;;;;;;;2.38;2.17;;;4.40;99.90;;;;;;6285145;22;20129;-52
2021/12/10 13:01:00;;;;;;;3.38;2.20;;;4.10;99.90;;;;;;6285461;22;20595;-51
2021/12/10 13:03:51;;;;;;;4.32;3.47;;;3.90;99.90;;;;;;6274626;22;20624;-51
2021/12/10 13:06:49;;;;;;;2.25;1.70;;;3.90;99.90;;;;;;6285240;22;20140;-51
2021/12/10 13:09:27;;;;;;;2.15;1.92;;;4.40;99.90;;;;;;6275123;22;20215;-52
2021/12/10 13:12:08;;;;;;;5.82;2.90;;;4.30;99.90;;;;;;6285294;22;20465;-50
2021/12/10 13:14:50;;;;;;;2.53;2.33;;;3.60;99.90;;;;;;6275845;22;20279;-50
2021/12/10 13:17:23;;;;;;;2.97;1.80;;;4.30;99.90;;;;;;6275013;22;20611;-51
2021/12/10 13:19:52;;;;;;;3.05;1.85;;;4.20;99.90;;;;;;6274798;22;20157;-51
2021/12/10 13:22:20;;;;;;;2.33;1.98;;;4.40;99.90;;;;;;6285030;22;20271;-51
2021/12/10 13:24:56;;;;;;;2.20;2.00;;;4.10;99.90;;;;;;6284989;22;20167;-50
2021/12/10 13:27:24;;;;;;;2.50;1.98;;;4.10;99.90;;;;;;6274708;22;20616;-51